sensor_id;sensor_type;location;lat;lon;timestamp;P1;durP1;ratioP1;P2;durP2;ratioP2
5391;SDS011;2719;53.624;9.786;2023-04-25T00:02:09;12.87;;;2.27;;
5391;SDS011;2719;53.624;9.786;2023-04-25T00:04:36;12.10;;;2.47;;
5391;SDS011;2719;53.624;9.786;2023-04-25T00:07:03;10.83;;;2.23;;
5391;SDS011;2719;53.624;9.786;2023-04-25T00:09:32;14.20;;;2.10;;
5391;SDS011;2719;53.624;9.786;2023-04-25T00:11:59;16.23;;;1.83;;
5391;SDS011;2719;53.624;9.786;2023-04-25T00:14:26;14.23;;;1.80;;
5391;SDS011;2719;53.624;9.786;2023-04-25T00:16:53;19.00;;;1.77;;
5391;SDS011;2719;53.624;9.786;2023-04-25T00:19:20;27.13;;;2.30;;
5391;SDS011;2719;53.624;9.786;2023-04-25T00:21:47;16.20;;;2.20;;
5391;SDS011;2719;53.624;9.786;2023-04-25T00:24:14;20.90;;;2.43;;
5391;SDS011;2719;53.624;9.786;2023-04-25T00:26:41;17.67;;;1.90;;
5391;SDS011;2719;53.624;9.786;2023-04-25T00:29:08;8.13;;;1.63;;
5391;SDS011;2719;53.624;9.786;2023-04-25T00:31:35;28.70;;;3.30;;
5391;SDS011;2719;53.624;9.786;2023-04-25T00:34:01;19.43;;;1.93;;
5391;SDS011;2719;53.624;9.786;2023-04-25T00:36:28;13.50;;;1.60;;
5391;SDS011;2719;53.624;9.786;2023-04-25T00:38:55;15.33;;;1.90;;
5391;SDS011;2719;53.624;9.786;2023-04-25T00:41:22;15.30;;;2.27;;
5391;SDS011;2719;53.624;9.786;2023-04-25T00:43:51;26.03;;;2.17;;
5391;SDS011;2719;53.624;9.786;2023-04-25T00:46:19;12.30;;;1.67;;
5391;SDS011;2719;53.624;9.786;2023-04-25T00:48:46;18.30;;;1.77;;
5391;SDS011;2719;53.624;9.786;2023-04-25T00:51:13;17.37;;;1.93;;
5391;SDS011;2719;53.624;9.786;2023-04-25T00:53:45;27.73;;;2.73;;
5391;SDS011;2719;53.624;9.786;2023-04-25T00:56:12;9.10;;;2.17;;
5391;SDS011;2719;53.624;9.786;2023-04-25T00:58:38;28.43;;;2.07;;
5391;SDS011;2719;53.624;9.786;2023-04-25T01:01:08;19.00;;;3.37;;
5391;SDS011;2719;53.624;9.786;2023-04-25T01:03:37;14.37;;;1.80;;
5391;SDS011;2719;53.624;9.786;2023-04-25T01:06:06;27.00;;;2.70;;
5391;SDS011;2719;53.624;9.786;2023-04-25T01:08:34;16.53;;;2.20;;
5391;SDS011;2719;53.624;9.786;2023-04-25T01:11:00;28.20;;;3.47;;
5391;SDS011;2719;53.624;9.786;2023-04-25T01:13:27;14.33;;;2.10;;
5391;SDS011;2719;53.624;9.786;2023-04-25T01:15:54;15.60;;;1.97;;
5391;SDS011;2719;53.624;9.786;2023-04-25T01:18:22;24.33;;;2.67;;
5391;SDS011;2719;53.624;9.786;2023-04-25T01:20:49;19.97;;;3.27;;
5391;SDS011;2719;53.624;9.786;2023-04-25T01:23:19;30.10;;;2.93;;
5391;SDS011;2719;53.624;9.786;2023-04-25T01:25:46;24.17;;;3.13;;
5391;SDS011;2719;53.624;9.786;2023-04-25T01:28:13;21.00;;;2.80;;
5391;SDS011;2719;53.624;9.786;2023-04-25T01:30:40;21.33;;;2.67;;
5391;SDS011;2719;53.624;9.786;2023-04-25T01:33:07;27.27;;;3.40;;
5391;SDS011;2719;53.624;9.786;2023-04-25T01:35:34;26.00;;;2.67;;
5391;SDS011;2719;53.624;9.786;2023-04-25T01:38:01;27.70;;;3.20;;
5391;SDS011;2719;53.624;9.786;2023-04-25T01:40:29;13.80;;;2.57;;
5391;SDS011;2719;53.624;9.786;2023-04-25T01:42:57;37.90;;;4.37;;
5391;SDS011;2719;53.624;9.786;2023-04-25T01:45:24;15.40;;;1.93;;
5391;SDS011;2719;53.624;9.786;2023-04-25T01:47:50;23.87;;;2.43;;
5391;SDS011;2719;53.624;9.786;2023-04-25T01:50:17;14.03;;;2.03;;
5391;SDS011;2719;53.624;9.786;2023-04-25T01:52:45;26.63;;;2.57;;
5391;SDS011;2719;53.624;9.786;2023-04-25T01:55:11;15.97;;;1.90;;
5391;SDS011;2719;53.624;9.786;2023-04-25T01:57:39;16.47;;;2.17;;
5391;SDS011;2719;53.624;9.786;2023-04-25T02:00:06;17.17;;;2.50;;
5391;SDS011;2719;53.624;9.786;2023-04-25T02:02:34;10.70;;;2.40;;
5391;SDS011;2719;53.624;9.786;2023-04-25T02:05:01;17.83;;;2.90;;
5391;SDS011;2719;53.624;9.786;2023-04-25T02:07:28;17.63;;;2.93;;
5391;SDS011;2719;53.624;9.786;2023-04-25T02:09:54;21.57;;;2.70;;
5391;SDS011;2719;53.624;9.786;2023-04-25T02:12:21;23.90;;;3.47;;
5391;SDS011;2719;53.624;9.786;2023-04-25T02:14:49;24.33;;;2.87;;
5391;SDS011;2719;53.624;9.786;2023-04-25T02:17:16;33.47;;;3.93;;
5391;SDS011;2719;53.624;9.786;2023-04-25T02:19:43;26.03;;;2.93;;
5391;SDS011;2719;53.624;9.786;2023-04-25T02:22:10;13.77;;;2.83;;
5391;SDS011;2719;53.624;9.786;2023-04-25T02:24:36;16.30;;;2.20;;
5391;SDS011;2719;53.624;9.786;2023-04-25T02:27:04;27.00;;;2.20;;
5391;SDS011;2719;53.624;9.786;2023-04-25T02:29:32;32.60;;;3.13;;
5391;SDS011;2719;53.624;9.786;2023-04-25T02:32:01;12.17;;;2.90;;
5391;SDS011;2719;53.624;9.786;2023-04-25T02:34:27;30.47;;;2.83;;
5391;SDS011;2719;53.624;9.786;2023-04-25T02:36:54;24.37;;;2.93;;
5391;SDS011;2719;53.624;9.786;2023-04-25T02:39:21;13.13;;;2.20;;
5391;SDS011;2719;53.624;9.786;2023-04-25T02:41:50;20.17;;;2.10;;
5391;SDS011;2719;53.624;9.786;2023-04-25T02:44:16;22.60;;;1.90;;
5391;SDS011;2719;53.624;9.786;2023-04-25T02:46:43;15.37;;;3.20;;
5391;SDS011;2719;53.624;9.786;2023-04-25T02:49:11;14.10;;;2.23;;
5391;SDS011;2719;53.624;9.786;2023-04-25T02:51:37;15.23;;;4.80;;
5391;SDS011;2719;53.624;9.786;2023-04-25T02:54:04;10.53;;;2.30;;
5391;SDS011;2719;53.624;9.786;2023-04-25T02:56:31;16.23;;;1.87;;
5391;SDS011;2719;53.624;9.786;2023-04-25T02:58:58;16.20;;;2.50;;
5391;SDS011;2719;53.624;9.786;2023-04-25T03:01:24;11.70;;;1.80;;
5391;SDS011;2719;53.624;9.786;2023-04-25T03:03:51;17.23;;;1.93;;
5391;SDS011;2719;53.624;9.786;2023-04-25T03:06:19;14.80;;;2.83;;
5391;SDS011;2719;53.624;9.786;2023-04-25T03:08:46;10.27;;;2.57;;
5391;SDS011;2719;53.624;9.786;2023-04-25T03:11:12;24.87;;;1.93;;
5391;SDS011;2719;53.624;9.786;2023-04-25T03:13:39;13.70;;;1.73;;
5391;SDS011;2719;53.624;9.786;2023-04-25T03:16:05;15.20;;;1.87;;
5391;SDS011;2719;53.624;9.786;2023-04-25T03:18:32;22.40;;;2.37;;
5391;SDS011;2719;53.624;9.786;2023-04-25T03:20:59;20.33;;;1.87;;
5391;SDS011;2719;53.624;9.786;2023-04-25T03:23:27;9.33;;;1.77;;
5391;SDS011;2719;53.624;9.786;2023-04-25T03:25:53;25.53;;;2.47;;
5391;SDS011;2719;53.624;9.786;2023-04-25T03:28:20;16.37;;;2.13;;
5391;SDS011;2719;53.624;9.786;2023-04-25T03:30:47;22.47;;;2.00;;
5391;SDS011;2719;53.624;9.786;2023-04-25T03:33:14;16.17;;;2.23;;
5391;SDS011;2719;53.624;9.786;2023-04-25T03:35:41;11.53;;;1.70;;
5391;SDS011;2719;53.624;9.786;2023-04-25T03:38:07;18.00;;;2.60;;
5391;SDS011;2719;53.624;9.786;2023-04-25T03:40:35;10.43;;;1.23;;
5391;SDS011;2719;53.624;9.786;2023-04-25T03:43:02;20.40;;;2.50;;
5391;SDS011;2719;53.624;9.786;2023-04-25T03:45:29;27.97;;;3.10;;
5391;SDS011;2719;53.624;9.786;2023-04-25T03:47:56;9.80;;;1.53;;
5391;SDS011;2719;53.624;9.786;2023-04-25T03:50:23;15.47;;;1.87;;
5391;SDS011;2719;53.624;9.786;2023-04-25T03:52:50;17.53;;;1.77;;
5391;SDS011;2719;53.624;9.786;2023-04-25T03:55:16;9.73;;;1.20;;
5391;SDS011;2719;53.624;9.786;2023-04-25T03:57:45;17.50;;;1.90;;
5391;SDS011;2719;53.624;9.786;2023-04-25T04:00:12;16.00;;;2.40;;
5391;SDS011;2719;53.624;9.786;2023-04-25T04:02:39;14.67;;;1.40;;
5391;SDS011;2719;53.624;9.786;2023-04-25T04:05:06;24.47;;;2.00;;
5391;SDS011;2719;53.624;9.786;2023-04-25T04:07:33;12.70;;;1.60;;
5391;SDS011;2719;53.624;9.786;2023-04-25T04:10:05;13.57;;;1.50;;
5391;SDS011;2719;53.624;9.786;2023-04-25T04:12:32;10.27;;;1.20;;
5391;SDS011;2719;53.624;9.786;2023-04-25T04:15:00;10.97;;;2.33;;
5391;SDS011;2719;53.624;9.786;2023-04-25T04:17:28;12.73;;;1.27;;
5391;SDS011;2719;53.624;9.786;2023-04-25T04:19:54;11.73;;;1.33;;
5391;SDS011;2719;53.624;9.786;2023-04-25T04:22:22;6.13;;;0.90;;
5391;SDS011;2719;53.624;9.786;2023-04-25T04:24:49;13.67;;;1.73;;
5391;SDS011;2719;53.624;9.786;2023-04-25T04:27:16;23.23;;;1.77;;
5391;SDS011;2719;53.624;9.786;2023-04-25T04:29:44;11.93;;;1.97;;
5391;SDS011;2719;53.624;9.786;2023-04-25T04:32:12;9.20;;;1.47;;
5391;SDS011;2719;53.624;9.786;2023-04-25T04:34:39;14.03;;;1.40;;
5391;SDS011;2719;53.624;9.786;2023-04-25T04:37:06;15.80;;;1.97;;
5391;SDS011;2719;53.624;9.786;2023-04-25T04:39:34;17.77;;;1.70;;
5391;SDS011;2719;53.624;9.786;2023-04-25T04:42:01;10.20;;;1.50;;
5391;SDS011;2719;53.624;9.786;2023-04-25T04:44:29;10.63;;;1.63;;
5391;SDS011;2719;53.624;9.786;2023-04-25T04:46:57;8.60;;;2.20;;
5391;SDS011;2719;53.624;9.786;2023-04-25T04:49:25;9.90;;;1.13;;
5391;SDS011;2719;53.624;9.786;2023-04-25T04:51:52;14.93;;;1.60;;
5391;SDS011;2719;53.624;9.786;2023-04-25T04:54:20;13.97;;;1.80;;
5391;SDS011;2719;53.624;9.786;2023-04-25T04:56:46;18.10;;;1.80;;
5391;SDS011;2719;53.624;9.786;2023-04-25T04:59:13;8.60;;;1.10;;
5391;SDS011;2719;53.624;9.786;2023-04-25T05:01:40;6.00;;;1.57;;
5391;SDS011;2719;53.624;9.786;2023-04-25T05:04:06;2.73;;;1.03;;
5391;SDS011;2719;53.624;9.786;2023-04-25T05:06:34;5.87;;;1.43;;
5391;SDS011;2719;53.624;9.786;2023-04-25T05:09:01;19.43;;;1.33;;
5391;SDS011;2719;53.624;9.786;2023-04-25T05:11:28;24.03;;;2.27;;
5391;SDS011;2719;53.624;9.786;2023-04-25T05:13:55;20.57;;;2.37;;
5391;SDS011;2719;53.624;9.786;2023-04-25T05:16:21;20.00;;;1.50;;
5391;SDS011;2719;53.624;9.786;2023-04-25T05:18:48;10.10;;;1.20;;
5391;SDS011;2719;53.624;9.786;2023-04-25T05:21:15;10.23;;;1.60;;
5391;SDS011;2719;53.624;9.786;2023-04-25T05:23:43;14.00;;;0.97;;
5391;SDS011;2719;53.624;9.786;2023-04-25T05:26:09;15.77;;;1.50;;
5391;SDS011;2719;53.624;9.786;2023-04-25T05:28:38;10.13;;;0.90;;
5391;SDS011;2719;53.624;9.786;2023-04-25T05:31:05;7.23;;;0.97;;
5391;SDS011;2719;53.624;9.786;2023-04-25T05:33:32;14.93;;;1.43;;
5391;SDS011;2719;53.624;9.786;2023-04-25T05:35:58;12.83;;;1.57;;
5391;SDS011;2719;53.624;9.786;2023-04-25T05:38:25;12.70;;;1.53;;
5391;SDS011;2719;53.624;9.786;2023-04-25T05:40:53;14.70;;;2.60;;
5391;SDS011;2719;53.624;9.786;2023-04-25T05:43:20;19.03;;;2.07;;
5391;SDS011;2719;53.624;9.786;2023-04-25T05:45:47;16.83;;;1.63;;
5391;SDS011;2719;53.624;9.786;2023-04-25T05:48:14;6.30;;;1.00;;
5391;SDS011;2719;53.624;9.786;2023-04-25T05:50:40;9.17;;;2.00;;
5391;SDS011;2719;53.624;9.786;2023-04-25T05:53:07;6.77;;;1.13;;
5391;SDS011;2719;53.624;9.786;2023-04-25T05:55:34;13.47;;;1.93;;
5391;SDS011;2719;53.624;9.786;2023-04-25T05:58:02;8.87;;;1.30;;
5391;SDS011;2719;53.624;9.786;2023-04-25T06:00:28;9.43;;;0.80;;
5391;SDS011;2719;53.624;9.786;2023-04-25T06:02:55;22.00;;;1.90;;
5391;SDS011;2719;53.624;9.786;2023-04-25T06:05:22;10.80;;;1.40;;
5391;SDS011;2719;53.624;9.786;2023-04-25T06:07:48;18.50;;;1.93;;
5391;SDS011;2719;53.624;9.786;2023-04-25T06:10:15;10.10;;;1.30;;
5391;SDS011;2719;53.624;9.786;2023-04-25T06:12:42;5.47;;;0.90;;
5391;SDS011;2719;53.624;9.786;2023-04-25T06:15:10;8.70;;;1.30;;
5391;SDS011;2719;53.624;9.786;2023-04-25T06:17:37;19.13;;;1.47;;
5391;SDS011;2719;53.624;9.786;2023-04-25T06:20:04;3.13;;;1.20;;
5391;SDS011;2719;53.624;9.786;2023-04-25T06:22:32;10.50;;;0.93;;
5391;SDS011;2719;53.624;9.786;2023-04-25T06:24:58;9.90;;;1.00;;
5391;SDS011;2719;53.624;9.786;2023-04-25T06:27:25;8.90;;;1.80;;
5391;SDS011;2719;53.624;9.786;2023-04-25T06:29:52;7.30;;;1.43;;
5391;SDS011;2719;53.624;9.786;2023-04-25T06:32:20;10.37;;;1.17;;
5391;SDS011;2719;53.624;9.786;2023-04-25T06:34:47;15.07;;;1.73;;
5391;SDS011;2719;53.624;9.786;2023-04-25T06:37:13;11.53;;;1.77;;
5391;SDS011;2719;53.624;9.786;2023-04-25T06:39:40;9.80;;;1.17;;
5391;SDS011;2719;53.624;9.786;2023-04-25T06:42:06;5.17;;;2.40;;
5391;SDS011;2719;53.624;9.786;2023-04-25T06:44:33;16.27;;;1.47;;
5391;SDS011;2719;53.624;9.786;2023-04-25T06:47:00;9.33;;;1.83;;
5391;SDS011;2719;53.624;9.786;2023-04-25T06:49:29;6.33;;;1.20;;
5391;SDS011;2719;53.624;9.786;2023-04-25T06:51:57;9.50;;;1.10;;
5391;SDS011;2719;53.624;9.786;2023-04-25T06:54:25;6.53;;;1.10;;
5391;SDS011;2719;53.624;9.786;2023-04-25T06:56:55;6.87;;;1.03;;
5391;SDS011;2719;53.624;9.786;2023-04-25T06:59:21;19.53;;;1.57;;
5391;SDS011;2719;53.624;9.786;2023-04-25T07:01:48;7.97;;;0.80;;
5391;SDS011;2719;53.624;9.786;2023-04-25T07:04:15;5.67;;;1.13;;
5391;SDS011;2719;53.624;9.786;2023-04-25T07:06:43;7.30;;;1.23;;
5391;SDS011;2719;53.624;9.786;2023-04-25T07:09:11;9.83;;;1.03;;
5391;SDS011;2719;53.624;9.786;2023-04-25T07:11:38;5.80;;;0.80;;
5391;SDS011;2719;53.624;9.786;2023-04-25T07:14:05;15.03;;;2.03;;
5391;SDS011;2719;53.624;9.786;2023-04-25T07:16:32;5.93;;;1.47;;
5391;SDS011;2719;53.624;9.786;2023-04-25T07:18:59;12.97;;;1.77;;
5391;SDS011;2719;53.624;9.786;2023-04-25T07:21:25;5.80;;;0.97;;
5391;SDS011;2719;53.624;9.786;2023-04-25T07:23:53;6.20;;;0.70;;
5391;SDS011;2719;53.624;9.786;2023-04-25T07:26:20;10.17;;;0.90;;
5391;SDS011;2719;53.624;9.786;2023-04-25T07:28:46;15.23;;;1.30;;
5391;SDS011;2719;53.624;9.786;2023-04-25T07:31:15;12.60;;;1.33;;
5391;SDS011;2719;53.624;9.786;2023-04-25T07:33:43;12.87;;;1.13;;
5391;SDS011;2719;53.624;9.786;2023-04-25T07:36:09;15.90;;;1.93;;
5391;SDS011;2719;53.624;9.786;2023-04-25T07:38:37;7.17;;;0.90;;
5391;SDS011;2719;53.624;9.786;2023-04-25T07:41:05;11.30;;;1.20;;
5391;SDS011;2719;53.624;9.786;2023-04-25T07:43:32;18.03;;;1.87;;
5391;SDS011;2719;53.624;9.786;2023-04-25T07:45:58;3.40;;;0.80;;
5391;SDS011;2719;53.624;9.786;2023-04-25T07:48:25;6.40;;;1.00;;
5391;SDS011;2719;53.624;9.786;2023-04-25T07:50:52;13.80;;;1.67;;
5391;SDS011;2719;53.624;9.786;2023-04-25T07:53:18;11.23;;;0.70;;
5391;SDS011;2719;53.624;9.786;2023-04-25T07:55:45;9.93;;;1.00;;
5391;SDS011;2719;53.624;9.786;2023-04-25T07:58:13;10.07;;;1.20;;
5391;SDS011;2719;53.624;9.786;2023-04-25T08:00:40;5.43;;;0.90;;
5391;SDS011;2719;53.624;9.786;2023-04-25T08:03:08;12.77;;;1.43;;
5391;SDS011;2719;53.624;9.786;2023-04-25T08:05:35;8.70;;;1.43;;
5391;SDS011;2719;53.624;9.786;2023-04-25T08:08:01;22.03;;;1.37;;
5391;SDS011;2719;53.624;9.786;2023-04-25T08:10:31;7.40;;;1.07;;
5391;SDS011;2719;53.624;9.786;2023-04-25T08:12:58;7.57;;;1.17;;
5391;SDS011;2719;53.624;9.786;2023-04-25T08:15:26;8.47;;;1.30;;
5391;SDS011;2719;53.624;9.786;2023-04-25T08:17:53;13.97;;;1.17;;
5391;SDS011;2719;53.624;9.786;2023-04-25T08:20:19;12.67;;;1.13;;
5391;SDS011;2719;53.624;9.786;2023-04-25T08:22:46;6.77;;;0.83;;
5391;SDS011;2719;53.624;9.786;2023-04-25T08:25:13;11.40;;;1.00;;
5391;SDS011;2719;53.624;9.786;2023-04-25T08:27:40;15.27;;;0.87;;
5391;SDS011;2719;53.624;9.786;2023-04-25T08:30:07;9.37;;;1.70;;
5391;SDS011;2719;53.624;9.786;2023-04-25T08:32:36;11.97;;;0.90;;
5391;SDS011;2719;53.624;9.786;2023-04-25T08:35:04;7.30;;;0.97;;
5391;SDS011;2719;53.624;9.786;2023-04-25T08:37:31;10.40;;;1.47;;
5391;SDS011;2719;53.624;9.786;2023-04-25T08:39:58;11.17;;;0.90;;
5391;SDS011;2719;53.624;9.786;2023-04-25T08:42:25;8.53;;;1.00;;
5391;SDS011;2719;53.624;9.786;2023-04-25T08:44:53;10.40;;;1.50;;
5391;SDS011;2719;53.624;9.786;2023-04-25T08:47:21;8.00;;;0.80;;
5391;SDS011;2719;53.624;9.786;2023-04-25T08:49:50;5.90;;;1.07;;
5391;SDS011;2719;53.624;9.786;2023-04-25T08:52:20;8.03;;;0.97;;
5391;SDS011;2719;53.624;9.786;2023-04-25T08:54:48;12.43;;;0.67;;
5391;SDS011;2719;53.624;9.786;2023-04-25T08:57:15;6.03;;;1.57;;
5391;SDS011;2719;53.624;9.786;2023-04-25T08:59:43;7.93;;;0.80;;
5391;SDS011;2719;53.624;9.786;2023-04-25T09:02:11;3.57;;;0.70;;
5391;SDS011;2719;53.624;9.786;2023-04-25T09:04:42;4.23;;;0.60;;
5391;SDS011;2719;53.624;9.786;2023-04-25T09:07:11;5.37;;;0.70;;
5391;SDS011;2719;53.624;9.786;2023-04-25T09:09:40;3.13;;;0.60;;
5391;SDS011;2719;53.624;9.786;2023-04-25T09:12:07;8.90;;;0.80;;
5391;SDS011;2719;53.624;9.786;2023-04-25T09:14:34;27.93;;;1.43;;
5391;SDS011;2719;53.624;9.786;2023-04-25T09:17:02;11.80;;;1.17;;
5391;SDS011;2719;53.624;9.786;2023-04-25T09:19:33;11.10;;;1.40;;
5391;SDS011;2719;53.624;9.786;2023-04-25T09:22:01;11.87;;;0.90;;
5391;SDS011;2719;53.624;9.786;2023-04-25T09:24:36;18.07;;;1.03;;
5391;SDS011;2719;53.624;9.786;2023-04-25T09:27:04;11.83;;;1.20;;
5391;SDS011;2719;53.624;9.786;2023-04-25T09:29:32;10.37;;;0.93;;
5391;SDS011;2719;53.624;9.786;2023-04-25T09:32:16;13.20;;;1.17;;
5391;SDS011;2719;53.624;9.786;2023-04-25T09:34:45;18.33;;;0.70;;
5391;SDS011;2719;53.624;9.786;2023-04-25T09:37:16;11.43;;;0.80;;
5391;SDS011;2719;53.624;9.786;2023-04-25T09:39:46;10.37;;;1.27;;
5391;SDS011;2719;53.624;9.786;2023-04-25T09:42:13;10.83;;;0.90;;
5391;SDS011;2719;53.624;9.786;2023-04-25T09:44:44;10.20;;;1.10;;
5391;SDS011;2719;53.624;9.786;2023-04-25T09:47:12;2.93;;;0.93;;
5391;SDS011;2719;53.624;9.786;2023-04-25T09:49:40;7.20;;;0.73;;
5391;SDS011;2719;53.624;9.786;2023-04-25T09:52:08;6.80;;;0.80;;
5391;SDS011;2719;53.624;9.786;2023-04-25T09:54:35;5.80;;;0.90;;
5391;SDS011;2719;53.624;9.786;2023-04-25T09:57:05;2.90;;;0.70;;
5391;SDS011;2719;53.624;9.786;2023-04-25T09:59:38;4.20;;;0.70;;
5391;SDS011;2719;53.624;9.786;2023-04-25T10:02:08;13.40;;;0.40;;
5391;SDS011;2719;53.624;9.786;2023-04-25T10:04:36;6.13;;;1.07;;
5391;SDS011;2719;53.624;9.786;2023-04-25T10:07:05;6.73;;;0.60;;
5391;SDS011;2719;53.624;9.786;2023-04-25T10:09:33;7.60;;;0.70;;
5391;SDS011;2719;53.624;9.786;2023-04-25T10:12:03;8.03;;;1.23;;
5391;SDS011;2719;53.624;9.786;2023-04-25T10:14:32;6.17;;;1.07;;
5391;SDS011;2719;53.624;9.786;2023-04-25T10:16:59;7.33;;;1.20;;
5391;SDS011;2719;53.624;9.786;2023-04-25T10:19:26;4.07;;;0.70;;
5391;SDS011;2719;53.624;9.786;2023-04-25T10:21:56;7.43;;;0.90;;
5391;SDS011;2719;53.624;9.786;2023-04-25T10:24:30;6.63;;;0.80;;
5391;SDS011;2719;53.624;9.786;2023-04-25T10:26:57;10.10;;;0.70;;
5391;SDS011;2719;53.624;9.786;2023-04-25T10:29:26;6.53;;;0.93;;
5391;SDS011;2719;53.624;9.786;2023-04-25T10:31:53;11.23;;;1.00;;
5391;SDS011;2719;53.624;9.786;2023-04-25T10:34:23;11.80;;;0.90;;
5391;SDS011;2719;53.624;9.786;2023-04-25T10:37:03;5.80;;;1.20;;
5391;SDS011;2719;53.624;9.786;2023-04-25T10:39:29;8.53;;;1.23;;
5391;SDS011;2719;53.624;9.786;2023-04-25T10:41:58;10.30;;;3.33;;
5391;SDS011;2719;53.624;9.786;2023-04-25T10:44:28;3.77;;;0.60;;
5391;SDS011;2719;53.624;9.786;2023-04-25T10:46:56;11.23;;;1.33;;
5391;SDS011;2719;53.624;9.786;2023-04-25T10:49:31;3.77;;;0.60;;
5391;SDS011;2719;53.624;9.786;2023-04-25T10:52:12;12.70;;;0.77;;
5391;SDS011;2719;53.624;9.786;2023-04-25T10:54:40;7.13;;;0.80;;
5391;SDS011;2719;53.624;9.786;2023-04-25T10:57:08;2.60;;;0.80;;
5391;SDS011;2719;53.624;9.786;2023-04-25T10:59:54;7.40;;;0.93;;
5391;SDS011;2719;53.624;9.786;2023-04-25T11:02:23;5.57;;;0.70;;
5391;SDS011;2719;53.624;9.786;2023-04-25T11:04:53;2.60;;;0.50;;
5391;SDS011;2719;53.624;9.786;2023-04-25T11:07:22;4.63;;;0.60;;
5391;SDS011;2719;53.624;9.786;2023-04-25T11:09:55;4.23;;;0.60;;
5391;SDS011;2719;53.624;9.786;2023-04-25T11:12:22;12.60;;;1.27;;
5391;SDS011;2719;53.624;9.786;2023-04-25T11:14:54;11.60;;;0.80;;
5391;SDS011;2719;53.624;9.786;2023-04-25T11:17:27;9.07;;;1.27;;
5391;SDS011;2719;53.624;9.786;2023-04-25T11:19:54;4.50;;;0.80;;
5391;SDS011;2719;53.624;9.786;2023-04-25T11:22:22;4.80;;;0.87;;
5391;SDS011;2719;53.624;9.786;2023-04-25T11:24:49;8.00;;;1.00;;
5391;SDS011;2719;53.624;9.786;2023-04-25T11:27:16;4.40;;;0.80;;
5391;SDS011;2719;53.624;9.786;2023-04-25T11:29:43;6.43;;;0.50;;
5391;SDS011;2719;53.624;9.786;2023-04-25T11:32:11;6.67;;;1.10;;
5391;SDS011;2719;53.624;9.786;2023-04-25T11:34:37;5.03;;;0.80;;
5391;SDS011;2719;53.624;9.786;2023-04-25T11:37:04;9.50;;;0.80;;
5391;SDS011;2719;53.624;9.786;2023-04-25T11:39:31;8.33;;;0.70;;
5391;SDS011;2719;53.624;9.786;2023-04-25T11:41:58;10.17;;;0.60;;
5391;SDS011;2719;53.624;9.786;2023-04-25T11:44:26;4.07;;;0.53;;
5391;SDS011;2719;53.624;9.786;2023-04-25T11:46:52;6.13;;;0.70;;
5391;SDS011;2719;53.624;9.786;2023-04-25T11:49:20;1.87;;;0.60;;
5391;SDS011;2719;53.624;9.786;2023-04-25T11:51:49;7.80;;;0.67;;
5391;SDS011;2719;53.624;9.786;2023-04-25T11:54:16;3.23;;;0.40;;
5391;SDS011;2719;53.624;9.786;2023-04-25T11:56:43;2.00;;;0.50;;
5391;SDS011;2719;53.624;9.786;2023-04-25T11:59:11;3.83;;;0.50;;
5391;SDS011;2719;53.624;9.786;2023-04-25T12:01:38;3.53;;;0.50;;
5391;SDS011;2719;53.624;9.786;2023-04-25T12:04:10;17.13;;;1.47;;
5391;SDS011;2719;53.624;9.786;2023-04-25T12:06:39;12.10;;;1.27;;
5391;SDS011;2719;53.624;9.786;2023-04-25T12:09:07;5.30;;;0.57;;
5391;SDS011;2719;53.624;9.786;2023-04-25T12:11:40;2.73;;;0.50;;
5391;SDS011;2719;53.624;9.786;2023-04-25T12:14:07;3.40;;;0.70;;
5391;SDS011;2719;53.624;9.786;2023-04-25T12:16:40;3.53;;;1.00;;
5391;SDS011;2719;53.624;9.786;2023-04-25T12:19:08;2.43;;;0.60;;
5391;SDS011;2719;53.624;9.786;2023-04-25T12:21:35;4.00;;;0.60;;
5391;SDS011;2719;53.624;9.786;2023-04-25T12:24:14;3.57;;;0.80;;
5391;SDS011;2719;53.624;9.786;2023-04-25T12:26:48;8.13;;;0.90;;
5391;SDS011;2719;53.624;9.786;2023-04-25T12:29:17;3.43;;;0.50;;
5391;SDS011;2719;53.624;9.786;2023-04-25T12:31:45;4.80;;;0.53;;
5391;SDS011;2719;53.624;9.786;2023-04-25T12:34:13;20.03;;;1.40;;
5391;SDS011;2719;53.624;9.786;2023-04-25T12:36:40;5.47;;;0.77;;
5391;SDS011;2719;53.624;9.786;2023-04-25T12:39:07;4.70;;;0.80;;
5391;SDS011;2719;53.624;9.786;2023-04-25T12:41:35;5.73;;;1.07;;
5391;SDS011;2719;53.624;9.786;2023-04-25T12:44:02;6.17;;;0.70;;
5391;SDS011;2719;53.624;9.786;2023-04-25T12:46:29;5.00;;;0.60;;
5391;SDS011;2719;53.624;9.786;2023-04-25T12:48:56;5.53;;;1.50;;
5391;SDS011;2719;53.624;9.786;2023-04-25T12:51:22;4.70;;;1.30;;
5391;SDS011;2719;53.624;9.786;2023-04-25T12:53:50;4.93;;;0.50;;
5391;SDS011;2719;53.624;9.786;2023-04-25T12:56:17;4.03;;;0.70;;
5391;SDS011;2719;53.624;9.786;2023-04-25T12:58:45;7.47;;;1.13;;
5391;SDS011;2719;53.624;9.786;2023-04-25T13:01:13;5.37;;;0.67;;
5391;SDS011;2719;53.624;9.786;2023-04-25T13:03:39;6.93;;;0.80;;
5391;SDS011;2719;53.624;9.786;2023-04-25T13:06:06;5.33;;;0.80;;
5391;SDS011;2719;53.624;9.786;2023-04-25T13:08:33;3.80;;;0.50;;
5391;SDS011;2719;53.624;9.786;2023-04-25T13:11:01;4.73;;;0.50;;
5391;SDS011;2719;53.624;9.786;2023-04-25T13:13:28;4.10;;;0.50;;
5391;SDS011;2719;53.624;9.786;2023-04-25T13:15:57;8.57;;;0.90;;
5391;SDS011;2719;53.624;9.786;2023-04-25T13:18:24;8.87;;;1.07;;
5391;SDS011;2719;53.624;9.786;2023-04-25T13:20:51;10.23;;;0.80;;
5391;SDS011;2719;53.624;9.786;2023-04-25T13:23:18;4.27;;;0.90;;
5391;SDS011;2719;53.624;9.786;2023-04-25T13:25:45;5.97;;;0.70;;
5391;SDS011;2719;53.624;9.786;2023-04-25T13:28:12;7.00;;;0.70;;
5391;SDS011;2719;53.624;9.786;2023-04-25T13:30:39;4.17;;;0.77;;
5391;SDS011;2719;53.624;9.786;2023-04-25T13:33:07;8.80;;;0.93;;
5391;SDS011;2719;53.624;9.786;2023-04-25T13:35:34;6.17;;;0.93;;
5391;SDS011;2719;53.624;9.786;2023-04-25T13:38:01;14.87;;;1.50;;
5391;SDS011;2719;53.624;9.786;2023-04-25T13:40:29;7.50;;;0.60;;
5391;SDS011;2719;53.624;9.786;2023-04-25T13:42:55;5.73;;;0.70;;
5391;SDS011;2719;53.624;9.786;2023-04-25T13:45:22;1.83;;;0.40;;
5391;SDS011;2719;53.624;9.786;2023-04-25T13:47:49;4.50;;;0.60;;
5391;SDS011;2719;53.624;9.786;2023-04-25T13:50:17;2.20;;;0.67;;
5391;SDS011;2719;53.624;9.786;2023-04-25T13:52:44;5.73;;;0.83;;
5391;SDS011;2719;53.624;9.786;2023-04-25T13:55:11;3.53;;;0.70;;
5391;SDS011;2719;53.624;9.786;2023-04-25T13:57:37;6.73;;;0.80;;
5391;SDS011;2719;53.624;9.786;2023-04-25T14:00:04;10.03;;;0.60;;
5391;SDS011;2719;53.624;9.786;2023-04-25T14:02:34;14.63;;;0.93;;
5391;SDS011;2719;53.624;9.786;2023-04-25T14:05:00;11.10;;;1.10;;
5391;SDS011;2719;53.624;9.786;2023-04-25T14:07:29;6.63;;;1.00;;
5391;SDS011;2719;53.624;9.786;2023-04-25T14:09:56;11.80;;;1.00;;
5391;SDS011;2719;53.624;9.786;2023-04-25T14:12:23;7.67;;;1.00;;
5391;SDS011;2719;53.624;9.786;2023-04-25T14:14:50;3.10;;;0.60;;
5391;SDS011;2719;53.624;9.786;2023-04-25T14:17:17;7.10;;;0.90;;
5391;SDS011;2719;53.624;9.786;2023-04-25T14:19:44;8.53;;;2.03;;
5391;SDS011;2719;53.624;9.786;2023-04-25T14:22:13;5.43;;;0.60;;
5391;SDS011;2719;53.624;9.786;2023-04-25T14:24:41;6.63;;;1.77;;
5391;SDS011;2719;53.624;9.786;2023-04-25T14:27:07;6.90;;;1.10;;
5391;SDS011;2719;53.624;9.786;2023-04-25T14:29:34;7.40;;;0.90;;
5391;SDS011;2719;53.624;9.786;2023-04-25T14:32:01;7.13;;;0.60;;
5391;SDS011;2719;53.624;9.786;2023-04-25T14:34:27;6.10;;;1.07;;
5391;SDS011;2719;53.624;9.786;2023-04-25T14:36:54;11.63;;;0.73;;
5391;SDS011;2719;53.624;9.786;2023-04-25T14:39:21;5.13;;;1.23;;
5391;SDS011;2719;53.624;9.786;2023-04-25T14:41:49;2.47;;;0.50;;
5391;SDS011;2719;53.624;9.786;2023-04-25T14:44:16;3.20;;;0.60;;
5391;SDS011;2719;53.624;9.786;2023-04-25T14:46:43;2.17;;;0.67;;
5391;SDS011;2719;53.624;9.786;2023-04-25T14:49:09;4.63;;;0.50;;
5391;SDS011;2719;53.624;9.786;2023-04-25T14:51:36;6.00;;;0.90;;
5391;SDS011;2719;53.624;9.786;2023-04-25T14:54:03;7.87;;;0.97;;
5391;SDS011;2719;53.624;9.786;2023-04-25T14:56:30;2.73;;;1.93;;
5391;SDS011;2719;53.624;9.786;2023-04-25T14:58:58;11.27;;;1.37;;
5391;SDS011;2719;53.624;9.786;2023-04-25T15:01:24;3.23;;;0.70;;
5391;SDS011;2719;53.624;9.786;2023-04-25T15:03:51;10.80;;;1.00;;
5391;SDS011;2719;53.624;9.786;2023-04-25T15:06:18;12.93;;;1.00;;
5391;SDS011;2719;53.624;9.786;2023-04-25T15:08:44;13.77;;;0.90;;
5391;SDS011;2719;53.624;9.786;2023-04-25T15:11:11;12.93;;;1.63;;